Time;durP1;ratioP1;P1;durP2;ratioP2;P2;SDS_P1;SDS_P2;PMS_P1;PMS_P2;Temp;Humidity;BMP_temperature;BMP_pressure;BME280_temperature;BME280_humidity;BME280_pressure;Samples;Min_cycle;Max_cycle;Signal;HPM_P1;HPM_P2
2023/10/18 00:01:41;;;;;;;3.13;2.70;;;2.10;65.50;;;;;;5038033;28;20214;-81
2023/10/18 00:04:07;;;;;;;3.30;2.80;;;2.00;32.70;;;;;;5038072;28;20233;-82
2023/10/18 00:06:32;;;;;;;4.63;3.10;;;2.10;95.00;;;;;;5038182;28;20255;-81
2023/10/18 00:08:59;;;;;;;3.47;3.00;;;2.10;99.90;;;;;;5037951;28;20173;-81
2023/10/18 00:11:25;;;;;;;4.77;3.40;;;2.10;99.90;;;;;;5055751;28;20188;-81
2023/10/18 00:13:53;;;;;;;3.07;2.57;;;2.10;99.90;;;;;;5055952;28;20238;-82
2023/10/18 00:16:21;;;;;;;5.63;3.10;;;2.10;99.90;;;;;;5055936;28;20207;-82
2023/10/18 00:18:47;;;;;;;4.57;3.43;;;2.00;26.60;;;;;;5055921;28;20181;-82
2023/10/18 00:21:12;;;;;;;4.53;3.13;;;1.90;99.90;;;;;;5037797;28;20198;-82
2023/10/18 00:23:39;;;;;;;4.83;3.90;;;2.00;99.90;;;;;;5038298;28;20631;-82
2023/10/18 00:26:09;;;;;;;4.73;3.50;;;1.90;99.90;;;;;;5055778;28;20197;-82
2023/10/18 00:28:38;;;;;;;4.60;3.50;;;2.10;99.90;;;;;;5055326;28;20656;-82
2023/10/18 00:31:18;;;;;;;5.23;3.30;;;2.10;99.90;;;;;;5055422;28;20251;-81
2023/10/18 00:33:47;;;;;;;4.90;3.30;;;2.20;99.90;;;;;;5055711;28;20163;-82
2023/10/18 00:36:17;;;;;;;4.00;3.33;;;2.30;45.30;;;;;;5055449;28;20201;-82
2023/10/18 00:38:47;;;;;;;4.40;3.30;;;2.30;1.00;;;;;;5037471;28;20188;-82
2023/10/18 00:41:22;;;;;;;3.67;3.20;;;2.30;1.00;;;;;;5054900;28;20183;-82
2023/10/18 00:43:51;;;;;;;3.97;3.03;;;2.10;1.00;;;;;;5055044;28;20195;-81
2023/10/18 00:46:17;;;;;;;4.63;3.40;;;2.10;35.30;;;;;;5055175;28;20203;-81
2023/10/18 00:48:44;;;;;;;4.97;3.27;;;2.10;1.00;;;;;;5054974;28;20169;-82
2023/10/18 00:51:15;;;;;;;5.10;3.30;;;2.20;13.50;;;;;;5036919;28;20173;-81
2023/10/18 00:53:42;;;;;;;3.93;3.30;;;2.10;1.00;;;;;;5037728;28;20196;-82
2023/10/18 00:56:11;;;;;;;3.93;3.17;;;2.20;16.60;;;;;;5055198;28;20279;-82
2023/10/18 00:58:39;;;;;;;4.40;3.60;;;2.10;14.60;;;;;;5037541;28;20191;-82
2023/10/18 01:01:09;;;;;;;4.03;3.50;;;2.10;1.00;;;;;;5037370;28;20637;-81
2023/10/18 01:03:41;;;;;;;5.00;3.57;;;2.20;9.30;;;;;;5055142;28;20572;-81
2023/10/18 01:06:12;;;;;;;3.23;2.90;;;2.10;40.50;;;;;;5037281;28;20586;-82
2023/10/18 01:08:39;;;;;;;4.00;3.30;;;2.10;49.10;;;;;;5055225;28;20242;-82
2023/10/18 01:11:07;;;;;;;3.93;3.50;;;2.10;1.00;;;;;;5054571;28;20231;-82
2023/10/18 01:13:42;;;;;;;4.93;3.60;;;2.10;1.00;;;;;;5037004;28;20253;-82
2023/10/18 01:16:20;;;;;;;4.63;3.43;;;1.80;1.00;;;;;;5054841;28;20199;-82
2023/10/18 01:18:47;;;;;;;4.63;3.70;;;1.80;1.00;;;;;;5037307;28;20169;-82
2023/10/18 01:21:19;;;;;;;4.60;3.50;;;1.80;1.00;;;;;;5054667;28;20195;-81
2023/10/18 01:23:49;;;;;;;4.20;3.80;;;1.80;1.00;;;;;;5036707;28;20208;-82
2023/10/18 01:26:18;;;;;;;4.20;3.50;;;1.80;1.00;;;;;;5054732;28;20193;-81
2023/10/18 01:28:44;;;;;;;3.83;3.37;;;1.90;1.00;;;;;;5055003;28;20199;-82
2023/10/18 01:31:12;;;;;;;5.83;3.80;;;1.90;1.00;;;;;;5036740;28;20204;-81
2023/10/18 01:33:46;;;;;;;6.83;3.93;;;1.90;1.00;;;;;;5036676;28;20645;-82
2023/10/18 01:36:14;;;;;;;4.90;3.40;;;1.90;1.00;;;;;;5036697;28;20198;-82
2023/10/18 01:38:42;;;;;;;4.03;3.30;;;1.90;1.00;;;;;;5036788;28;20173;-82
2023/10/18 01:41:09;;;;;;;5.00;3.63;;;1.80;1.00;;;;;;5036580;28;20183;-81
2023/10/18 01:43:36;;;;;;;4.93;3.63;;;1.90;1.00;;;;;;5036687;28;20207;-82
2023/10/18 01:46:06;;;;;;;5.40;3.43;;;1.80;1.00;;;;;;5054437;28;20197;-82
2023/10/18 01:48:37;;;;;;;4.70;3.67;;;1.70;1.00;;;;;;5054844;28;20235;-82
2023/10/18 01:51:06;;;;;;;5.60;3.50;;;1.70;7.30;;;;;;5035863;28;20173;-81
2023/10/18 01:53:33;;;;;;;3.83;3.37;;;1.80;1.00;;;;;;5053890;28;20172;-82
2023/10/18 01:56:01;;;;;;;4.00;3.47;;;1.90;1.00;;;;;;5035608;28;20197;-82
2023/10/18 01:58:28;;;;;;;4.33;3.43;;;2.00;1.00;;;;;;5053982;28;20205;-81
2023/10/18 02:00:57;;;;;;;3.93;3.27;;;1.90;1.00;;;;;;5054035;28;20196;-81
2023/10/18 02:03:24;;;;;;;4.30;3.23;;;1.90;1.00;;;;;;5035830;28;20207;-81
2023/10/18 02:05:49;;;;;;;4.93;3.47;;;1.90;1.00;;;;;;5035324;28;20208;-82
2023/10/18 02:08:15;;;;;;;4.50;3.40;;;1.70;1.00;;;;;;5053786;28;20173;-81
2023/10/18 02:10:42;;;;;;;4.10;3.20;;;1.70;1.00;;;;;;5036001;28;20267;-81
2023/10/18 02:13:18;;;;;;;4.70;3.37;;;1.70;1.00;;;;;;5035617;28;20222;-81
2023/10/18 02:15:44;;;;;;;5.03;3.50;;;1.60;1.00;;;;;;5035878;28;20698;-81
2023/10/18 02:18:10;;;;;;;4.30;3.40;;;1.50;1.00;;;;;;5053690;28;20169;-81
2023/10/18 02:20:40;;;;;;;4.47;3.30;;;1.40;1.00;;;;;;5053552;28;20183;-80
2023/10/18 02:23:11;;;;;;;5.03;3.37;;;1.40;32.30;;;;;;5053032;28;20165;-81
2023/10/18 02:25:46;;;;;;;6.20;3.60;;;1.40;46.40;;;;;;5035536;28;20257;-82
2023/10/18 02:28:22;;;;;;;4.80;3.50;;;1.50;48.30;;;;;;5035633;28;20174;-81
2023/10/18 02:31:13;;;;;;;4.97;3.53;;;1.40;3.70;;;;;;5053403;28;20629;-82
2023/10/18 02:33:44;;;;;;;4.23;3.13;;;1.30;28.70;;;;;;5036119;28;20172;-81
2023/10/18 02:36:11;;;;;;;6.13;3.50;;;1.50;54.50;;;;;;5036314;28;20209;-82
2023/10/18 02:38:38;;;;;;;5.30;3.67;;;1.50;28.50;;;;;;5035893;28;20185;-81
2023/10/18 02:41:14;;;;;;;3.90;3.13;;;1.50;1.00;;;;;;5052719;28;20563;-81
2023/10/18 02:43:45;;;;;;;3.87;3.10;;;1.40;1.00;;;;;;5035360;28;20200;-82
2023/10/18 02:46:16;;;;;;;4.10;3.27;;;1.30;42.10;;;;;;5035443;28;20260;-82
2023/10/18 02:48:44;;;;;;;4.83;3.20;;;1.30;49.10;;;;;;5035371;28;20173;-82
2023/10/18 02:51:12;;;;;;;4.10;3.23;;;1.20;28.90;;;;;;5034665;28;20386;-81
2023/10/18 02:53:40;;;;;;;3.90;3.20;;;1.20;74.30;;;;;;5052758;28;20187;-81
2023/10/18 02:56:07;;;;;;;4.53;3.10;;;1.20;28.40;;;;;;5053000;28;20679;-82
2023/10/18 02:58:37;;;;;;;5.97;3.40;;;1.20;99.90;;;;;;5053113;28;20179;-81
2023/10/18 03:01:07;;;;;;;6.23;3.40;;;1.30;99.90;;;;;;5052615;28;20161;-80
2023/10/18 03:03:33;;;;;;;5.07;3.10;;;1.30;99.90;;;;;;5035066;28;20218;-81
2023/10/18 03:06:05;;;;;;;3.87;3.47;;;1.40;99.90;;;;;;5037128;28;20243;-82
2023/10/18 03:08:32;;;;;;;4.37;3.00;;;1.40;25.60;;;;;;5059305;28;20156;-82
2023/10/18 03:11:00;;;;;;;3.50;3.03;;;1.50;1.00;;;;;;5041763;28;20532;-82
2023/10/18 03:13:27;;;;;;;5.37;3.10;;;1.60;1.00;;;;;;5042047;28;20186;-81
2023/10/18 03:16:15;;;;;;;4.90;3.47;;;1.50;1.00;;;;;;5059566;28;20227;-82
2023/10/18 03:18:43;;;;;;;4.60;3.50;;;1.30;3.80;;;;;;5059363;28;20165;-82
2023/10/18 03:21:13;;;;;;;4.10;3.30;;;1.20;91.70;;;;;;5059206;28;20192;-81
2023/10/18 03:23:44;;;;;;;3.43;3.13;;;1.30;99.90;;;;;;5041342;28;20198;-82
2023/10/18 03:26:11;;;;;;;4.03;3.27;;;1.30;99.90;;;;;;5041768;28;20714;-82
2023/10/18 03:28:40;;;;;;;5.17;3.17;;;1.40;99.90;;;;;;5059432;28;20667;-82
2023/10/18 03:31:28;;;;;;;4.47;3.17;;;1.40;85.40;;;;;;5041210;28;20579;-81
2023/10/18 03:34:02;;;;;;;5.30;3.00;;;1.30;1.00;;;;;;5041428;28;20172;-82
2023/10/18 03:36:48;;;;;;;4.47;3.00;;;1.30;1.00;;;;;;5059141;28;20187;-82
2023/10/18 03:39:19;;;;;;;4.00;3.20;;;1.30;1.00;;;;;;5059468;28;20160;-81
2023/10/18 03:41:49;;;;;;;4.83;3.37;;;1.30;43.90;;;;;;5040851;28;20194;-81
2023/10/18 03:44:22;;;;;;;4.43;3.20;;;1.30;87.60;;;;;;5041308;28;20672;-81
2023/10/18 03:46:48;;;;;;;3.63;3.07;;;1.30;99.90;;;;;;5059440;28;20192;-82
2023/10/18 03:49:23;;;;;;;4.53;3.23;;;1.30;77.80;;;;;;5059245;28;20551;-82
2023/10/18 03:51:50;;;;;;;5.20;3.30;;;1.40;54.00;;;;;;5058741;28;20193;-81
2023/10/18 03:54:15;;;;;;;4.47;3.37;;;1.40;11.90;;;;;;5059356;28;20205;-82
2023/10/18 03:56:43;;;;;;;4.80;3.40;;;1.50;30.00;;;;;;5041496;28;20227;-82
2023/10/18 03:59:19;;;;;;;4.97;3.33;;;1.50;6.60;;;;;;5059089;28;20196;-82
2023/10/18 04:02:02;;;;;;;3.97;3.40;;;1.50;1.00;;;;;;5058803;28;20190;-81
2023/10/18 04:04:34;;;;;;;4.67;3.13;;;1.40;1.00;;;;;;5041170;28;20206;-82
2023/10/18 04:07:01;;;;;;;4.40;3.67;;;1.30;1.00;;;;;;5041257;28;20186;-81
2023/10/18 04:09:27;;;;;;;5.60;3.53;;;1.20;1.00;;;;;;5059541;28;20174;-81
2023/10/18 04:11:53;;;;;;;4.70;3.20;;;1.30;1.00;;;;;;5058406;28;20171;-81
2023/10/18 04:14:22;;;;;;;4.23;3.50;;;1.30;1.00;;;;;;5041109;28;20671;-82
2023/10/18 04:16:56;;;;;;;4.57;3.40;;;1.30;1.00;;;;;;5040517;28;20202;-81
2023/10/18 04:19:22;;;;;;;4.97;3.50;;;1.10;1.00;;;;;;5037539;28;20170;-81
2023/10/18 04:21:52;;;;;;;4.50;3.40;;;1.10;1.00;;;;;;5055475;28;20176;-81
2023/10/18 04:24:20;;;;;;;4.30;3.20;;;1.00;1.00;;;;;;5037566;28;20208;-81
2023/10/18 04:26:49;;;;;;;6.60;4.10;;;1.20;1.00;;;;;;5037703;28;20190;-81
2023/10/18 04:29:23;;;;;;;4.53;3.70;;;1.30;1.00;;;;;;5055853;28;20176;-81
2023/10/18 04:31:49;;;;;;;5.07;3.57;;;1.10;1.00;;;;;;5037320;28;20157;-81
2023/10/18 04:34:19;;;;;;;4.67;3.30;;;1.10;1.00;;;;;;5055559;28;20174;-81
2023/10/18 04:36:44;;;;;;;4.57;3.60;;;1.00;1.00;;;;;;5037687;28;20191;-81
2023/10/18 04:39:11;;;;;;;6.17;3.13;;;1.00;1.00;;;;;;5037473;28;20197;-81
2023/10/18 04:41:38;;;;;;;3.90;3.30;;;1.00;1.00;;;;;;5036746;28;20217;-81
2023/10/18 04:44:07;;;;;;;4.43;3.30;;;1.00;1.00;;;;;;5037375;28;20230;-82
2023/10/18 04:46:36;;;;;;;4.63;3.43;;;0.90;1.00;;;;;;5055095;28;20557;-82
2023/10/18 04:51:44;;;;;;;;;;;;;;;;;;;;;
2023/10/18 04:54:08;;;;;;;4.03;3.60;;;0.80;1.00;;;;;;5055168;28;20175;-81
2023/10/18 04:56:34;;;;;;;4.50;3.63;;;1.00;1.00;;;;;;5055545;28;20327;-81
2023/10/18 04:59:11;;;;;;;5.37;4.10;;;0.90;1.00;;;;;;5055185;28;20174;-81
2023/10/18 05:04:29;;;;;;;5.70;4.20;;;0.60;48.20;;;;;;5055404;28;20197;-81
2023/10/18 05:06:56;;;;;;;5.70;4.20;;;0.70;99.90;;;;;;5054839;28;20185;-81
2023/10/18 05:12:46;;;;;;;4.47;3.67;;;0.40;99.90;;;;;;5054555;28;20195;-81
2023/10/18 05:17:26;;;;;;;5.27;3.80;;;0.30;99.90;;;;;;5055241;28;20196;-81
2023/10/18 05:19:56;;;;;;;5.63;4.00;;;0.40;99.90;;;;;;5037232;28;20170;-81
2023/10/18 05:22:28;;;;;;;4.23;3.30;;;0.50;99.90;;;;;;5054499;28;20165;-81
2023/10/18 05:24:55;;;;;;;6.13;3.90;;;0.60;99.90;;;;;;5054867;28;20209;-81
2023/10/18 05:27:27;;;;;;;6.23;4.40;;;0.60;99.90;;;;;;5055035;28;20177;-81
2023/10/18 05:29:58;;;;;;;10.17;5.17;;;0.70;99.90;;;;;;5053849;28;20241;-81
2023/10/18 05:35:03;;;;;;;6.00;4.10;;;0.80;99.90;;;;;;5054655;28;20196;-81
2023/10/18 05:37:33;;;;;;;7.13;3.93;;;0.70;99.90;;;;;;5036548;28;20653;-81
2023/10/18 05:40:46;;;;;;;5.67;4.03;;;0.70;99.90;;;;;;5054700;28;20175;-81
2023/10/18 05:42:48;;;;;;;4.90;3.50;;;0.70;99.90;;;;;;5047019;28;20187;-81
2023/10/18 05:45:14;;;;;;;7.37;4.83;;;1.10;99.90;;;;;;5054343;28;20332;-80
2023/10/18 05:47:42;;;;;;;7.23;4.90;;;1.70;99.90;;;;;;5036589;28;20213;-81
2023/10/18 05:50:12;;;;;;;5.30;4.00;;;2.50;99.90;;;;;;5037086;28;20176;-79
2023/10/18 05:52:38;;;;;;;7.80;5.00;;;3.00;99.90;;;;;;5053548;28;20200;-81
2023/10/18 05:55:10;;;;;;;5.70;4.13;;;2.70;18.00;;;;;;5036082;28;20217;-83
2023/10/18 05:57:37;;;;;;;4.87;3.93;;;2.30;1.00;;;;;;5035872;28;20173;-83
2023/10/18 06:00:22;;;;;;;5.30;4.00;;;2.00;14.20;;;;;;5053590;28;20200;-83
2023/10/18 06:02:52;;;;;;;4.77;3.80;;;1.60;51.90;;;;;;5053889;28;20163;-81
2023/10/18 06:05:19;;;;;;;5.30;3.73;;;1.40;99.90;;;;;;5036879;28;20207;-80
2023/10/18 06:07:46;;;;;;;6.57;4.50;;;1.30;99.90;;;;;;5036541;28;20168;-80
2023/10/18 06:10:17;;;;;;;5.53;4.27;;;1.30;99.90;;;;;;5054623;28;20628;-80
2023/10/18 06:12:55;;;;;;;6.23;4.03;;;1.30;99.90;;;;;;5054110;28;20156;-81
2023/10/18 06:15:34;;;;;;;5.90;4.30;;;1.30;99.90;;;;;;5036567;28;20202;-80
2023/10/18 06:18:00;;;;;;;6.03;4.60;;;1.30;99.90;;;;;;5054584;28;20161;-82
2023/10/18 06:20:28;;;;;;;6.63;4.50;;;1.30;99.90;;;;;;5054150;28;20553;-81
2023/10/18 06:23:08;;;;;;;5.97;4.57;;;1.60;99.90;;;;;;5035923;28;20271;-78
2023/10/18 06:25:35;;;;;;;5.63;4.37;;;1.70;99.90;;;;;;5036175;28;20213;-81
2023/10/18 06:28:06;;;;;;;7.73;4.40;;;1.70;99.90;;;;;;5035266;28;20191;-80
2023/10/18 06:30:35;;;;;;;7.00;4.90;;;1.70;99.90;;;;;;5053660;28;20148;-79
2023/10/18 06:33:05;;;;;;;6.23;4.90;;;1.40;94.40;;;;;;5053507;28;20187;-81
2023/10/18 06:35:31;;;;;;;6.47;4.70;;;1.30;99.90;;;;;;5035672;28;20745;-81
2023/10/18 06:37:57;;;;;;;6.87;4.67;;;1.30;99.90;;;;;;5054005;28;20177;-80
2023/10/18 06:40:40;;;;;;;6.87;4.37;;;1.30;99.90;;;;;;5035282;28;20173;-80
2023/10/18 06:43:06;;;;;;;7.93;4.73;;;1.20;99.90;;;;;;5035180;28;20167;-80
2023/10/18 06:45:36;;;;;;;8.30;5.27;;;1.20;99.90;;;;;;5053504;28;20208;-80
2023/10/18 06:48:03;;;;;;;8.50;5.87;;;1.30;99.90;;;;;;5053618;28;20195;-81
2023/10/18 06:50:30;;;;;;;6.50;5.10;;;1.40;99.90;;;;;;5053541;28;20636;-80
2023/10/18 06:52:58;;;;;;;7.73;5.00;;;1.50;99.90;;;;;;5034891;28;20198;-80
2023/10/18 06:55:41;;;;;;;6.23;4.80;;;1.50;99.90;;;;;;5053418;28;20204;-80
2023/10/18 07:00:53;;;;;;;7.70;4.53;;;1.40;99.90;;;;;;5053380;28;20178;-80
2023/10/18 07:03:25;;;;;;;6.17;4.83;;;1.40;99.90;;;;;;5053404;28;20654;-81
2023/10/18 07:05:52;;;;;;;7.27;5.00;;;1.50;99.90;;;;;;5093146;22;20227;-79
2023/10/18 07:08:25;;;;;;;5.10;4.37;;;1.50;99.90;;;;;;5036665;28;20172;-79
2023/10/18 07:10:54;;;;;;;7.23;5.27;;;1.60;99.90;;;;;;5055320;28;20163;-81
2023/10/18 07:13:32;;;;;;;6.90;4.80;;;1.60;99.90;;;;;;5053568;28;20259;-78
2023/10/18 07:16:12;;;;;;;6.70;4.73;;;1.60;99.90;;;;;;5053300;28;20183;-79
2023/10/18 07:18:38;;;;;;;7.57;4.67;;;1.70;99.90;;;;;;5053057;28;20177;-79
2023/10/18 07:21:09;;;;;;;7.17;5.57;;;1.60;99.90;;;;;;5034556;28;20616;-80
2023/10/18 07:23:37;;;;;;;7.23;5.20;;;1.70;99.90;;;;;;5053417;28;20212;-79
2023/10/18 07:26:13;;;;;;;8.00;5.07;;;1.80;99.90;;;;;;5034920;28;20656;-80
2023/10/18 07:28:40;;;;;;;6.93;5.20;;;1.80;99.90;;;;;;5035046;28;20592;-81
2023/10/18 07:31:10;;;;;;;7.03;5.30;;;1.90;99.90;;;;;;5042452;28;20201;-80
2023/10/18 07:33:40;;;;;;;7.63;5.23;;;2.00;99.90;;;;;;5039789;28;20196;-80
2023/10/18 07:36:18;;;;;;;6.23;5.60;;;2.10;99.90;;;;;;5051373;28;20196;-79
2023/10/18 07:38:55;;;;;;;7.43;5.43;;;2.10;99.90;;;;;;5033711;28;20170;-78
2023/10/18 07:41:26;;;;;;;7.27;5.67;;;2.30;99.90;;;;;;5037093;28;20186;-79
2023/10/18 07:43:52;;;;;;;6.97;5.10;;;2.30;99.90;;;;;;5029687;28;20227;-80
2023/10/18 07:46:18;;;;;;;6.37;5.27;;;2.40;99.90;;;;;;5024591;28;20199;-80
2023/10/18 07:48:47;;;;;;;6.50;5.17;;;2.50;99.90;;;;;;5028434;28;20269;-80
2023/10/18 07:51:23;;;;;;;5.97;4.87;;;2.50;99.90;;;;;;5033505;28;20179;-80
2023/10/18 07:53:59;;;;;;;6.40;5.33;;;2.60;99.90;;;;;;5035545;28;20166;-80
2023/10/18 07:56:29;;;;;;;7.83;5.67;;;2.50;99.90;;;;;;5018980;28;20197;-80
2023/10/18 07:59:26;;;;;;;7.17;5.00;;;2.70;99.90;;;;;;5036963;28;20227;-80
2023/10/18 08:01:51;;;;;;;9.27;5.60;;;2.80;99.90;;;;;;5036308;28;20185;-81
2023/10/18 08:04:19;;;;;;;8.73;5.83;;;2.80;99.90;;;;;;5036587;28;20189;-80
2023/10/18 08:06:45;;;;;;;8.27;5.87;;;2.80;99.90;;;;;;5018581;28;20212;-80
2023/10/18 08:09:17;;;;;;;7.57;5.50;;;2.90;99.90;;;;;;5019032;28;20212;-80
2023/10/18 08:11:44;;;;;;;7.03;6.00;;;3.10;99.90;;;;;;5018784;28;20273;-80
2023/10/18 08:14:16;;;;;;;8.27;5.90;;;3.30;99.90;;;;;;5040967;28;20667;-80
2023/10/18 08:16:43;;;;;;;7.43;5.80;;;3.30;99.90;;;;;;5056679;28;20280;-80
2023/10/18 08:19:12;;;;;;;7.90;5.80;;;3.50;99.90;;;;;;5044051;28;20193;-80
2023/10/18 08:21:39;;;;;;;8.33;6.27;;;3.60;99.90;;;;;;5018547;28;20181;-80
2023/10/18 08:24:08;;;;;;;10.17;6.03;;;3.60;99.90;;;;;;5036552;28;20200;-81
2023/10/18 08:26:46;;;;;;;6.83;5.80;;;3.70;99.90;;;;;;5018874;28;20771;-80
2023/10/18 08:29:13;;;;;;;9.70;7.13;;;3.80;99.90;;;;;;5037814;28;20512;-80
2023/10/18 08:31:39;;;;;;;14.50;9.63;;;3.90;99.90;;;;;;5036534;28;20170;-80
2023/10/18 08:34:15;;;;;;;10.33;7.87;;;4.00;99.90;;;;;;5018513;28;20613;-81
2023/10/18 08:36:43;;;;;;;8.20;6.70;;;4.20;99.90;;;;;;5036735;28;20201;-80
2023/10/18 08:39:10;;;;;;;8.03;6.00;;;4.50;99.90;;;;;;5040512;28;20239;-80
2023/10/18 08:41:54;;;;;;;8.50;6.57;;;4.60;99.90;;;;;;5047584;28;20178;-80
2023/10/18 08:44:24;;;;;;;10.03;6.87;;;4.60;99.90;;;;;;5038173;28;20209;-80
2023/10/18 08:49:50;;;;;;;7.50;6.10;;;4.90;99.90;;;;;;5056345;28;20150;-80
2023/10/18 08:52:20;;;;;;;9.87;6.93;;;5.10;99.90;;;;;;5055978;28;20154;-80
2023/10/18 08:54:47;;;;;;;9.23;7.20;;;5.20;99.90;;;;;;5055909;28;20577;-80
2023/10/18 08:57:24;;;;;;;8.70;6.83;;;5.40;99.90;;;;;;5056463;28;20199;-80
2023/10/18 08:59:51;;;;;;;19.47;11.67;;;5.50;99.90;;;;;;5057590;28;20715;-81
2023/10/18 09:02:18;;;;;;;9.07;6.17;;;5.70;99.90;;;;;;5055826;28;20182;-80
2023/10/18 09:04:59;;;;;;;8.27;6.13;;;5.90;99.90;;;;;;5037325;28;20189;-80
2023/10/18 09:07:42;;;;;;;51.10;29.10;;;5.80;99.90;;;;;;5055921;28;20174;-81
2023/10/18 09:10:13;;;;;;;18.20;11.33;;;5.90;18.60;;;;;;5037713;28;20171;-80
2023/10/18 09:15:28;;;;;;;8.07;6.23;;;6.10;1.00;;;;;;5055889;28;20647;-80
2023/10/18 09:18:03;;;;;;;8.10;6.73;;;6.20;16.30;;;;;;5052345;28;20264;-81
2023/10/18 09:20:31;;;;;;;11.50;7.33;;;6.30;1.00;;;;;;5055386;28;20174;-81
2023/10/18 09:23:03;;;;;;;9.30;6.17;;;6.30;1.00;;;;;;5051340;28;20173;-80
2023/10/18 09:25:47;;;;;;;8.33;7.00;;;6.40;22.70;;;;;;5017598;28;20300;-80
2023/10/18 09:28:25;;;;;;;8.47;6.83;;;6.50;99.90;;;;;;5017605;28;20178;-81
2023/10/18 09:31:00;;;;;;;8.43;6.30;;;6.60;75.90;;;;;;5035517;28;20157;-79
2023/10/18 09:33:29;;;;;;;11.63;7.53;;;6.80;59.70;;;;;;5035546;28;20168;-80
2023/10/18 09:36:01;;;;;;;12.33;7.87;;;6.90;95.70;;;;;;5035003;28;20197;-81
2023/10/18 09:38:39;;;;;;;8.93;6.53;;;7.00;99.90;;;;;;5051760;28;20181;-81
2023/10/18 09:41:05;;;;;;;9.90;7.13;;;7.10;1.00;;;;;;5054545;28;20181;-78
2023/10/18 09:43:33;;;;;;;11.40;8.00;;;7.10;63.20;;;;;;5037220;28;20206;-80
2023/10/18 09:45:59;;;;;;;9.67;7.03;;;7.20;99.90;;;;;;5055408;28;20194;-80
2023/10/18 09:48:33;;;;;;;9.27;7.30;;;7.30;1.00;;;;;;5037334;28;20212;-80
2023/10/18 09:51:08;;;;;;;9.63;7.50;;;7.20;1.00;;;;;;5054326;28;20173;-80
2023/10/18 09:53:43;;;;;;;16.37;14.67;;;7.20;1.00;;;;;;5055113;28;20241;-81
2023/10/18 09:56:14;;;;;;;9.07;7.03;;;7.30;28.00;;;;;;5036987;28;20601;-80
2023/10/18 09:58:46;;;;;;;9.43;7.13;;;7.40;3.00;;;;;;5055002;28;20176;-80
2023/10/18 10:01:14;;;;;;;7.80;6.80;;;7.50;1.00;;;;;;5035953;28;20158;-80
2023/10/18 10:03:53;;;;;;;8.63;6.63;;;7.60;1.00;;;;;;5055877;28;20186;-80
2023/10/18 10:06:26;;;;;;;10.37;7.73;;;7.70;1.00;;;;;;5039778;28;20205;-80
2023/10/18 10:11:37;;;;;;;8.73;6.93;;;8.20;1.00;;;;;;5053879;28;20183;-81
2023/10/18 10:14:07;;;;;;;9.67;7.20;;;8.40;1.00;;;;;;5053853;28;20188;-82
2023/10/18 10:16:34;;;;;;;9.17;7.53;;;8.50;1.00;;;;;;5053352;28;20208;-82
2023/10/18 10:19:05;;;;;;;11.40;8.57;;;8.50;1.00;;;;;;5036159;28;20215;-82
2023/10/18 10:21:34;;;;;;;12.10;8.77;;;8.60;1.00;;;;;;5053625;28;20168;-81
2023/10/18 10:24:07;;;;;;;7.77;6.30;;;8.70;1.00;;;;;;5036332;28;20206;-81
2023/10/18 10:26:36;;;;;;;9.00;6.70;;;8.70;1.00;;;;;;5053949;28;20250;-81
2023/10/18 10:31:58;;;;;;;8.00;6.80;;;8.70;1.00;;;;;;5053594;28;20179;-80
2023/10/18 10:34:32;;;;;;;8.10;6.67;;;8.80;1.00;;;;;;5050266;28;20205;-80
2023/10/18 10:37:18;;;;;;;8.13;5.90;;;8.90;1.00;;;;;;5035187;28;20198;-80
2023/10/18 10:39:49;;;;;;;8.53;6.33;;;9.00;1.00;;;;;;5053928;28;20178;-80
2023/10/18 10:42:41;;;;;;;8.27;6.20;;;9.20;1.00;;;;;;5035249;28;20173;-81
2023/10/18 10:45:30;;;;;;;7.47;6.20;;;9.30;1.00;;;;;;5053643;28;20193;-81
2023/10/18 10:47:55;;;;;;;8.63;6.60;;;9.40;1.00;;;;;;5052951;28;20181;-80
2023/10/18 10:51:13;;;;;;;7.10;6.20;;;9.50;1.00;;;;;;5053546;28;20633;-80
2023/10/18 10:53:57;;;;;;;7.23;5.97;;;9.70;1.00;;;;;;5020676;28;20294;-80
2023/10/18 10:56:28;;;;;;;6.80;5.87;;;9.80;99.90;;;;;;5053721;28;20200;-81
2023/10/18 10:58:55;;;;;;;6.93;6.13;;;9.80;1.00;;;;;;5035481;28;20634;-81
2023/10/18 11:01:39;;;;;;;8.67;6.00;;;10.00;99.90;;;;;;5035348;28;20311;-81
2023/10/18 11:04:48;;;;;;;7.53;6.00;;;10.20;99.90;;;;;;5035665;28;20197;-81
2023/10/18 11:07:18;;;;;;;7.40;6.30;;;10.40;1.00;;;;;;5033825;28;20685;-81
2023/10/18 11:09:45;;;;;;;6.20;5.60;;;10.60;1.00;;;;;;5049874;28;20181;-80
2023/10/18 11:12:12;;;;;;;7.50;6.00;;;10.80;99.90;;;;;;5027845;28;20530;-81
2023/10/18 11:14:38;;;;;;;9.90;6.13;;;10.90;1.00;;;;;;5019067;28;20189;-80
2023/10/18 11:19:43;;;;;;;7.67;6.33;;;11.30;1.00;;;;;;5034172;28;20227;-79
2023/10/18 11:22:22;;;;;;;7.33;6.00;;;11.50;99.90;;;;;;5051356;28;20189;-80
2023/10/18 11:24:52;;;;;;;6.80;6.10;;;11.60;99.90;;;;;;5035890;28;20197;-80
2023/10/18 11:27:21;;;;;;;8.07;6.10;;;11.50;1.00;;;;;;5041676;28;20189;-79
2023/10/18 11:29:55;;;;;;;8.33;6.30;;;11.60;99.90;;;;;;5057843;28;20243;-80
2023/10/18 11:32:27;;;;;;;7.23;5.60;;;11.70;1.00;;;;;;5038331;28;20195;-81
2023/10/18 11:35:08;;;;;;;6.20;5.40;;;12.00;99.90;;;;;;5035336;28;20261;-80
2023/10/18 11:37:38;;;;;;;8.80;5.20;;;12.10;99.90;;;;;;5040070;28;20188;-80
2023/10/18 11:40:29;;;;;;;6.37;5.43;;;12.10;99.90;;;;;;5056150;28;20201;-80
2023/10/18 11:43:05;;;;;;;7.27;6.53;;;12.30;1.00;;;;;;5055674;28;20165;-80
2023/10/18 11:45:31;;;;;;;7.87;6.30;;;12.30;99.90;;;;;;5057518;28;20209;-81
2023/10/18 11:47:59;;;;;;;7.67;5.47;;;12.40;99.90;;;;;;5057885;28;20252;-80
2023/10/18 11:50:48;;;;;;;5.90;5.23;;;12.30;99.90;;;;;;5055988;28;20173;-80
2023/10/18 11:53:17;;;;;;;6.37;5.30;;;12.30;99.90;;;;;;5057216;28;20207;-80
2023/10/18 11:56:09;;;;;;;6.90;4.73;;;12.20;1.00;;;;;;5057484;28;20202;-80
2023/10/18 11:58:35;;;;;;;5.73;3.90;;;12.20;99.90;;;;;;5051577;28;20565;-80
2023/10/18 12:01:15;;;;;;;5.97;4.70;;;12.20;84.30;;;;;;5038846;28;20188;-80
2023/10/18 12:03:43;;;;;;;5.57;4.30;;;12.30;1.00;;;;;;5039261;28;20177;-80
2023/10/18 12:06:11;;;;;;;4.53;3.60;;;12.30;99.90;;;;;;5032079;28;20220;-81
2023/10/18 12:11:28;;;;;;;5.30;4.23;;;12.50;1.00;;;;;;5043935;28;20191;-80
2023/10/18 12:13:53;;;;;;;6.33;4.73;;;12.60;82.20;;;;;;5058063;28;20178;-78
2023/10/18 12:16:22;;;;;;;20.07;14.10;;;12.70;99.90;;;;;;5039279;28;20229;-81
2023/10/18 12:18:48;;;;;;;4.80;3.73;;;12.70;1.00;;;;;;5030122;28;20178;-80
2023/10/18 12:21:14;;;;;;;4.63;3.53;;;12.70;1.00;;;;;;5036716;28;20257;-81
2023/10/18 12:23:40;;;;;;;4.30;3.17;;;12.70;99.90;;;;;;5027943;28;20185;-79
2023/10/18 12:26:11;;;;;;;5.53;3.80;;;12.80;30.00;;;;;;5057647;28;20190;-79
2023/10/18 12:28:37;;;;;;;4.30;3.53;;;12.90;1.00;;;;;;5058925;28;20244;-82
2023/10/18 12:31:12;;;;;;;4.13;2.90;;;13.00;1.00;;;;;;5039051;28;20259;-80
2023/10/18 12:33:40;;;;;;;6.53;2.97;;;13.00;99.90;;;;;;5056125;28;20162;-81
2023/10/18 12:36:08;;;;;;;4.43;2.80;;;13.10;41.50;;;;;;5055362;28;20700;-82
2023/10/18 12:38:35;;;;;;;25.87;15.40;;;13.00;67.30;;;;;;5036465;28;20264;-80
2023/10/18 12:41:07;;;;;;;4.80;3.50;;;13.10;99.90;;;;;;5037432;28;20173;-79
2023/10/18 12:43:38;;;;;;;4.20;2.70;;;13.20;99.90;;;;;;5056026;28;20204;-80
2023/10/18 12:46:04;;;;;;;5.00;2.47;;;13.20;1.00;;;;;;5037711;28;20213;-82
2023/10/18 12:48:31;;;;;;;3.90;2.60;;;13.60;99.90;;;;;;5055635;28;20170;-80
2023/10/18 12:50:56;;;;;;;4.80;3.10;;;14.00;99.90;;;;;;5035896;28;20185;-81
2023/10/18 12:55:58;;;;;;;9.63;5.83;;;14.90;1.00;;;;;;5055463;28;20232;-80
2023/10/18 12:58:31;;;;;;;5.83;2.83;;;15.30;1.00;;;;;;5055325;28;20185;-81
2023/10/18 13:01:06;;;;;;;6.23;3.80;;;16.00;99.90;;;;;;5055434;28;20178;-80
2023/10/18 13:03:43;;;;;;;3.93;2.00;;;16.70;99.90;;;;;;5037514;28;20165;-82
2023/10/18 13:06:15;;;;;;;3.83;2.57;;;16.60;99.90;;;;;;5055575;28;20619;-82
2023/10/18 13:08:55;;;;;;;2.60;2.13;;;16.60;99.90;;;;;;5036886;28;20170;-83
2023/10/18 13:14:14;;;;;;;3.53;2.47;;;16.80;99.90;;;;;;5037885;28;20198;-79
2023/10/18 13:16:44;;;;;;;34.53;20.77;;;16.90;99.90;;;;;;5043330;28;20200;-80
2023/10/18 13:19:14;;;;;;;4.63;3.47;;;17.00;99.90;;;;;;5037930;28;20212;-82
2023/10/18 13:21:39;;;;;;;8.80;6.07;;;17.20;99.90;;;;;;5046703;28;20582;-82
2023/10/18 13:24:20;;;;;;;4.77;3.53;;;17.10;99.90;;;;;;5036820;28;20197;-82
2023/10/18 13:26:47;;;;;;;3.70;2.33;;;17.20;99.90;;;;;;5019389;28;20703;-82
2023/10/18 13:31:44;;;;;;;10.40;6.67;;;16.60;99.90;;;;;;5051178;28;20232;-83
2023/10/18 13:34:20;;;;;;;4.67;2.40;;;16.60;99.90;;;;;;5054181;28;20170;-82
2023/10/18 13:36:50;;;;;;;3.80;3.50;;;16.80;99.90;;;;;;5054384;28;20193;-82
2023/10/18 13:39:17;;;;;;;4.63;4.23;;;16.90;99.90;;;;;;5054509;28;20182;-82
2023/10/18 13:41:47;;;;;;;3.37;2.90;;;16.40;99.90;;;;;;5036374;28;20184;-82
2023/10/18 13:44:13;;;;;;;3.03;2.60;;;16.20;99.90;;;;;;5036475;28;20200;-82
2023/10/18 13:46:39;;;;;;;3.20;2.50;;;16.20;99.90;;;;;;5053788;28;20189;-83
2023/10/18 13:49:08;;;;;;;3.80;2.40;;;16.20;99.90;;;;;;5053850;28;20174;-83
2023/10/18 13:51:37;;;;;;;3.13;2.43;;;16.20;99.90;;;;;;5052596;28;20185;-83
2023/10/18 13:54:04;;;;;;;2.70;2.17;;;16.30;99.90;;;;;;5054012;28;20174;-83
2023/10/18 13:56:30;;;;;;;2.57;2.03;;;16.60;99.90;;;;;;5036700;28;20585;-82
2023/10/18 13:58:56;;;;;;;3.27;2.07;;;16.70;99.90;;;;;;5054470;28;20186;-82